地図

経路データ

SID SEASON NUMBER BASIN SUBBASIN NAME ISO_TIME NATURE LAT LON WMO_WIND WMO_PRES WMO_AGENCY TRACK_TYPE DIST2LAND LANDFALL IFLAG USA_AGENCY USA_ATCF_ID USA_LAT USA_LON USA_RECORD USA_STATUS USA_WIND USA_PRES USA_SSHS USA_R34_NE USA_R34_SE USA_R34_SW USA_R34_NW USA_R50_NE USA_R50_SE USA_R50_SW USA_R50_NW USA_R64_NE USA_R64_SE USA_R64_SW USA_R64_NW USA_POCI USA_ROCI USA_RMW USA_EYE TOKYO_LAT TOKYO_LON TOKYO_GRADE TOKYO_WIND TOKYO_PRES TOKYO_R50_DIR TOKYO_R50_LONG TOKYO_R50_SHORT TOKYO_R30_DIR TOKYO_R30_LONG TOKYO_R30_SHORT TOKYO_LAND CMA_LAT CMA_LON CMA_CAT CMA_WIND CMA_PRES HKO_LAT HKO_LON HKO_CAT HKO_WIND HKO_PRES NEWDELHI_LAT NEWDELHI_LON NEWDELHI_GRADE NEWDELHI_WIND NEWDELHI_PRES NEWDELHI_CI NEWDELHI_DP NEWDELHI_POCI REUNION_LAT REUNION_LON REUNION_TYPE REUNION_WIND REUNION_PRES REUNION_TNUM REUNION_CI REUNION_RMW REUNION_R34_NE REUNION_R34_SE REUNION_R34_SW REUNION_R34_NW REUNION_R50_NE REUNION_R50_SE REUNION_R50_SW REUNION_R50_NW REUNION_R64_NE REUNION_R64_SE REUNION_R64_SW REUNION_R64_NW BOM_LAT BOM_LON BOM_TYPE BOM_WIND BOM_PRES BOM_TNUM BOM_CI BOM_RMW BOM_R34_NE BOM_R34_SE BOM_R34_SW BOM_R34_NW BOM_R50_NE BOM_R50_SE BOM_R50_SW BOM_R50_NW BOM_R64_NE BOM_R64_SE BOM_R64_SW BOM_R64_NW BOM_ROCI BOM_POCI BOM_EYE BOM_POS_METHOD BOM_PRES_METHOD NADI_LAT NADI_LON NADI_CAT NADI_WIND NADI_PRES WELLINGTON_LAT WELLINGTON_LON WELLINGTON_WIND WELLINGTON_PRES DS824_LAT DS824_LON DS824_STAGE DS824_WIND DS824_PRES TD9636_LAT TD9636_LON TD9636_STAGE TD9636_WIND TD9636_PRES TD9635_LAT TD9635_LON TD9635_WIND TD9635_PRES TD9635_ROCI NEUMANN_LAT NEUMANN_LON NEUMANN_CLASS NEUMANN_WIND NEUMANN_PRES MLC_LAT MLC_LON MLC_CLASS MLC_WIND MLC_PRES USA_GUST BOM_GUST BOM_GUST_PER REUNION_GUST REUNION_GUST_PER USA_SEAHGT USA_SEARAD_NE USA_SEARAD_SE USA_SEARAD_SW USA_SEARAD_NW STORM_SPEED STORM_DIR
1921305S17062 1922 58 SI MM NOT_NAMED 1921-10-31 18:00:00 NR -16.5000 61.5000 main 568 545 __________O___ -1 -16.5000 61.5000 7 5 244
1921305S17062 1922 58 SI MM NOT_NAMED 1921-10-31 21:00:00 NR -16.6189 61.2464 main 538 507 __________P___ -1 -16.6189 61.2464 7 6 241
1921305S17062 1922 58 SI MM NOT_NAMED 1921-11-01 00:00:00 NR -16.7702 60.9942 main 507 476 __________P___ -1 -16.7702 60.9942 7 6 233
1921305S17062 1922 58 SI MM NOT_NAMED 1921-11-01 03:00:00 NR -16.9863 60.7450 main 469 430 __________P___ -1 -16.9863 60.7450 7 7 222
1921305S17062 1922 58 SI MM NOT_NAMED 1921-11-01 06:00:00 NR -17.3000 60.5000 main 430 383 __________O___ -1 -17.3000 60.5000 7 9 212
1921305S17062 1922 58 SI MM NOT_NAMED 1921-11-01 09:00:00 NR -17.7332 60.2638 main 383 329 __________P___ -1 -17.7332 60.2638 7 11 204
1921305S17062 1922 58 SI MM NOT_NAMED 1921-11-01 12:00:00 NR -18.2651 60.0540 main 322 272 __________P___ -1 -18.2651 60.0540 7 12 197
1921305S17062 1922 58 SI MM NOT_NAMED 1921-11-01 15:00:00 NR -18.8645 59.8921 main 266 227 __________P___ -1 -18.8645 59.8921 7 13 191
1921305S17062 1922 58 SI MM NOT_NAMED 1921-11-01 18:00:00 NR -19.5000 59.8000 main 227 209 __________O___ -1 -19.5000 59.8000 7 13 186
1921305S17062 1922 58 SI MM NOT_NAMED 1921-11-01 21:00:00 NR -20.1776 59.7501 main 208 198 __________P___ -1 -20.1776 59.7501 7 14 0
1921305S17062 1922 58 SI MM NOT_NAMED 1921-11-02 00:00:00 NR -20.8742 59.7774 main 218 218 __________P___ -1 -20.8742 59.7774 7 14 174
1921305S17062 1922 58 SI MM NOT_NAMED 1921-11-02 03:00:00 NR -21.5337 59.8909 main 254 254 __________P___ -1 -21.5337 59.8909 7 13 166
1921305S17062 1922 58 SI MM NOT_NAMED 1921-11-02 06:00:00 NR -22.1000 60.1000 main 306 306 __________O___ -1 -22.1000 60.1000 7 11 155
1921305S17062 1922 58 SI MM NOT_NAMED 1921-11-02 09:00:00 NR -22.5088 60.3903 main 357 357 __________P___ -1 -22.5088 60.3903 7 10 139
1921305S17062 1922 58 SI MM NOT_NAMED 1921-11-02 12:00:00 NR -22.8200 60.7728 main 410 410 __________P___ -1 -22.8200 60.7728 7 10 126
1921305S17062 1922 58 SI MM NOT_NAMED 1921-11-02 15:00:00 NR -23.0712 61.2188 main 463 463 __________P___ -1 -23.0712 61.2188 7 10 119
1921305S17062 1922 58 SI MM NOT_NAMED 1921-11-02 18:00:00 NR -23.3000 61.7000 main 517 517 __________O___ -1 -23.3000 61.7000 7 10 119
1921305S17062 1922 58 SI MM NOT_NAMED 1921-11-02 21:00:00 NR -23.5643 62.1718 main 578 578 __________P___ -1 -23.5643 62.1718 7 10 120
1921305S17062 1922 58 SI MM NOT_NAMED 1921-11-03 00:00:00 NR -23.8149 62.6707 main 633 633 __________P___ -1 -23.8149 62.6707 7 11 118
1921305S17062 1922 58 SI MM NOT_NAMED 1921-11-03 03:00:00 NR -24.0580 63.1843 main 694 694 __________P___ -1 -24.0580 63.1843 7 11 117
1921305S17062 1922 58 SI MM NOT_NAMED 1921-11-03 06:00:00 NR -24.3000 63.7000 main 748 748 __________O___ -1 -24.3000 63.7000 7 10 119
1921305S17062 1922 58 SI MM NOT_NAMED 1921-11-03 09:00:00 NR -24.5531 64.1805 main 809 809 __________P___ -1 -24.5531 64.1805 7 10 120
1921305S17062 1922 58 SI MM NOT_NAMED 1921-11-03 12:00:00 NR -24.8060 64.6636 main 863 863 __________P___ -1 -24.8060 64.6636 7 10 119
1921305S17062 1922 58 SI MM NOT_NAMED 1921-11-03 15:00:00 NR -25.0560 65.1649 main 924 924 __________P___ -1 -25.0560 65.1649 7 11 118
1921305S17062 1922 58 SI MM NOT_NAMED 1921-11-03 18:00:00 NR -25.3000 65.7000 main 978 978 __________O___ -1 -25.3000 65.7000 7 11 115
1921305S17062 1922 58 SI MM NOT_NAMED 1921-11-03 21:00:00 NR -25.5354 66.2800 main 1041 1041 __________P___ -1 -25.5354 66.2800 7 12 113
1921305S17062 1922 58 SI MM NOT_NAMED 1921-11-04 00:00:00 NR -25.7629 66.8978 main 1110 1110 __________P___ -1 -25.7629 66.8978 7 12 112
1921305S17062 1922 58 SI MM NOT_NAMED 1921-11-04 03:00:00 NR -25.9839 67.5418 main 1173 1173 __________P___ -1 -25.9839 67.5418 7 13 110
1921305S17062 1922 58 SI MM NOT_NAMED 1921-11-04 06:00:00 NR -26.2000 68.2000 main 1245 __________O___ -1 -26.2000 68.2000 7 13 110

IBTrACS Databaseについて

本データベースは、米国NOAAが公開する1842年以降の世界の熱帯低気圧のベストトラックデータアーカイブInternational Best Track Archive for Climate Stewardship (IBTrACS)を、ウェブで閲覧しやすい形式に変換したものです。

最終更新日:2021-10-08